createdAt,value
2018-11-06T00:00:26.557Z,97862.80
2018-11-06T00:03:02.408Z,97857.09
2018-11-06T00:05:33.320Z,97850.57
2018-11-06T00:08:03.204Z,97853.20
2018-11-06T00:10:34.201Z,97854.55
2018-11-06T00:13:04.425Z,97857.17
2018-11-06T00:15:34.563Z,97855.83
2018-11-06T00:18:04.757Z,97858.41
2018-11-06T00:20:35.021Z,97860.69
2018-11-06T00:23:05.127Z,97854.66
2018-11-06T00:25:35.084Z,97787.56
2018-11-06T00:28:05.647Z,97854.66
2018-11-06T00:30:36.440Z,97850.26
2018-11-06T00:33:07.246Z,97854.66
2018-11-06T00:35:39.097Z,97848.94
2018-11-06T00:38:09.190Z,97850.31
2018-11-06T00:40:39.422Z,97849.80
2018-11-06T00:43:10.394Z,97846.38
2018-11-06T00:45:40.886Z,97672.34
2018-11-06T00:48:11.419Z,97848.14
2018-11-06T00:50:42.155Z,97852.28
2018-11-06T00:53:13.588Z,97856.69
2018-11-06T00:55:43.717Z,97859.26
2018-11-06T00:58:14.651Z,97850.91
2018-11-06T01:00:44.737Z,97854.41
2018-11-06T01:03:15.829Z,97849.14
2018-11-06T01:05:46.448Z,97848.17
2018-11-06T01:08:16.569Z,97843.37
2018-11-06T01:10:46.559Z,97839.02
2018-11-06T01:13:17.058Z,97842.11
2018-11-06T01:15:47.765Z,97849.94
2018-11-06T01:18:18.575Z,97844.14
2018-11-06T01:20:49.229Z,97842.48
2018-11-06T01:23:19.273Z,97843.80
2018-11-06T01:25:49.902Z,97836.39
2018-11-06T01:28:19.847Z,97840.28
2018-11-06T01:30:51.100Z,97843.34
2018-11-06T01:33:21.901Z,97843.37
2018-11-06T01:35:52.529Z,97842.03
2018-11-06T01:38:24.477Z,97846.45
2018-11-06T01:40:55.157Z,97849.14
2018-11-06T01:43:25.141Z,97849.94
2018-11-06T01:45:56.746Z,97846.86
2018-11-06T01:48:27.690Z,97843.54
2018-11-06T01:50:59.105Z,97840.06
2018-11-06T01:53:29.484Z,97844.86
2018-11-06T01:56:00.229Z,97842.97
2018-11-06T01:58:30.728Z,97843.48
2018-11-06T02:01:00.878Z,97818.13
2018-11-06T02:03:30.614Z,97839.20
2018-11-06T02:06:01.439Z,97844.48
2018-11-06T02:08:31.771Z,97848.42
2018-11-06T02:11:02.646Z,97851.03
2018-11-06T02:13:33.085Z,97847.62
2018-11-06T02:16:03.630Z,97843.74
2018-11-06T02:18:33.460Z,97849.00
2018-11-06T02:21:04.366Z,97847.62
2018-11-06T02:23:34.061Z,97841.91
2018-11-06T02:26:04.051Z,97840.59
2018-11-06T02:28:34.185Z,97843.63
2018-11-06T02:31:04.682Z,97848.03
2018-11-06T02:33:34.909Z,97852.34
2018-11-06T02:36:05.255Z,97851.05
2018-11-06T02:38:36.057Z,97841.05
2018-11-06T02:41:06.838Z,97845.86
2018-11-06T02:43:38.033Z,97821.84
2018-11-06T02:46:07.927Z,97846.83
2018-11-06T02:48:38.690Z,97855.17
2018-11-06T02:51:08.981Z,97845.59
2018-11-06T02:53:39.536Z,97840.71
2018-11-06T02:56:11.539Z,97844.28
2018-11-06T02:58:41.324Z,97841.65
2018-11-06T03:01:12.575Z,97837.70
2018-11-06T03:03:43.302Z,97839.42
2018-11-06T03:06:14.579Z,97835.02
2018-11-06T03:08:45.023Z,97840.73
2018-11-06T03:11:16.077Z,97842.05
2018-11-06T03:13:46.933Z,97839.88
2018-11-06T03:16:17.384Z,97842.16
2018-11-06T03:18:48.737Z,97843.94
2018-11-06T03:21:20.341Z,97846.05
2018-11-06T03:23:50.061Z,97840.34
2018-11-06T03:26:20.954Z,97842.11
2018-11-06T03:28:52.017Z,97843.87
2018-11-06T03:31:22.637Z,97840.34
2018-11-06T03:33:52.761Z,97836.91
2018-11-06T03:36:23.308Z,97837.39
2018-11-06T03:38:54.272Z,97843.56
2018-11-06T03:41:24.921Z,97844.08
2018-11-06T03:43:54.868Z,97844.48
2018-11-06T03:46:25.444Z,97841.79
2018-11-06T03:48:56.044Z,97841.79
2018-11-06T03:51:26.433Z,97841.33
2018-11-06T03:53:56.575Z,97852.28
2018-11-06T03:56:26.701Z,97839.22
2018-11-06T03:58:56.929Z,97839.99
2018-11-06T04:01:28.089Z,97839.88
2018-11-06T04:03:59.088Z,97844.28
2018-11-06T04:06:29.763Z,97850.84
2018-11-06T04:09:00.306Z,97848.22
2018-11-06T04:11:31.120Z,97843.48
2018-11-06T04:14:01.607Z,97839.14
2018-11-06T04:16:32.540Z,97833.88
2018-11-06T04:19:02.994Z,97835.14
2018-11-06T04:21:38.585Z,97833.36
2018-11-06T04:24:10.805Z,97832.84
2018-11-06T04:26:41.072Z,97832.11
2018-11-06T04:29:11.348Z,97831.14
2018-11-06T04:31:41.269Z,97827.19
2018-11-06T04:34:11.260Z,97829.88
2018-11-06T04:36:41.151Z,97833.36
2018-11-06T04:39:11.869Z,97831.70
2018-11-06T04:41:41.732Z,97835.73
2018-11-06T04:44:11.531Z,97832.70
2018-11-06T04:46:41.516Z,97829.50
2018-11-06T04:49:11.368Z,97831.33
2018-11-06T04:51:41.213Z,97827.79
2018-11-06T04:54:11.098Z,97829.62
2018-11-06T04:56:40.956Z,97830.08
2018-11-06T04:59:10.827Z,97834.88
2018-11-06T05:01:40.732Z,97831.39
2018-11-06T05:04:10.553Z,97830.53
2018-11-06T05:06:40.425Z,97831.91
2018-11-06T05:09:10.372Z,97832.76
2018-11-06T05:11:40.225Z,97832.30
2018-11-06T05:14:10.151Z,97829.22
2018-11-06T05:16:40.065Z,97833.16
2018-11-06T05:19:09.912Z,97788.20
2018-11-06T05:21:39.846Z,97843.27
2018-11-06T05:24:09.723Z,97842.50
2018-11-06T05:26:39.632Z,97840.27
2018-11-06T05:29:09.602Z,97839.02
2018-11-06T05:31:39.746Z,97841.30
2018-11-06T05:34:11.347Z,97843.09
2018-11-06T05:36:44.806Z,97840.78
2018-11-06T05:39:14.873Z,97847.55
2018-11-06T05:41:44.896Z,97843.34
2018-11-06T05:44:15.103Z,97821.17
2018-11-06T05:46:45.043Z,97846.55
2018-11-06T05:49:15.388Z,97844.71
2018-11-06T05:51:45.241Z,97850.77
2018-11-06T05:54:15.045Z,97851.22
2018-11-06T05:56:44.946Z,97855.22
2018-11-06T05:59:14.756Z,97861.84
2018-11-06T06:01:44.559Z,97860.02
2018-11-06T06:04:14.405Z,97865.62
2018-11-06T06:06:44.284Z,97866.00
2018-11-06T06:09:14.173Z,97870.74
2018-11-06T06:11:44.028Z,97868.44
2018-11-06T06:14:14.057Z,97876.66
2018-11-06T06:16:43.923Z,97876.93
2018-11-06T06:19:13.887Z,97881.67
2018-11-06T06:21:43.801Z,97883.25
2018-11-06T06:24:13.689Z,97872.41
2018-11-06T06:26:44.181Z,97871.34
2018-11-06T06:29:14.059Z,97871.19
2018-11-06T06:31:43.945Z,97883.44
2018-11-06T06:34:13.815Z,97879.21
2018-11-06T06:36:43.752Z,97873.30
2018-11-06T06:39:13.823Z,97846.09
2018-11-06T06:41:43.715Z,97877.13
2018-11-06T06:44:13.569Z,97881.59
2018-11-06T06:46:43.512Z,97875.35
2018-11-06T06:49:13.279Z,97873.52
2018-11-06T06:51:43.289Z,97876.99
2018-11-06T06:54:13.234Z,97877.91
2018-11-06T06:56:43.172Z,97877.97
2018-11-06T06:59:13.091Z,97874.82
2018-11-06T07:01:43.117Z,97876.45
2018-11-06T07:04:13.024Z,97880.45
2018-11-06T07:06:42.889Z,97883.48
2018-11-06T07:09:12.727Z,97886.58
2018-11-06T07:11:42.628Z,97879.14
2018-11-06T07:14:12.534Z,97873.02
2018-11-06T07:16:42.411Z,97871.19
2018-11-06T07:19:12.345Z,97871.07
2018-11-06T07:21:42.257Z,97871.87
2018-11-06T07:24:12.191Z,97869.54
2018-11-06T07:26:42.093Z,97872.63
2018-11-06T07:29:12.063Z,97869.61
2018-11-06T07:31:41.939Z,97875.39
2018-11-06T07:34:11.858Z,97698.57
2018-11-06T07:36:41.792Z,97869.75
2018-11-06T07:39:12.724Z,97870.55
2018-11-06T07:41:42.695Z,97871.06
2018-11-06T07:44:12.608Z,97869.95
2018-11-06T07:46:42.434Z,97862.73
2018-11-06T07:49:12.468Z,97871.79
2018-11-06T07:51:42.468Z,97861.52
2018-11-06T07:54:12.329Z,97860.48
2018-11-06T07:56:42.288Z,97866.02
2018-11-06T07:59:12.063Z,97861.00
2018-11-06T08:01:41.968Z,97865.19
2018-11-06T08:04:11.956Z,97868.23
2018-11-06T08:06:41.883Z,97864.25
2018-11-06T08:09:12.119Z,97808.40
2018-11-06T08:11:41.904Z,97869.52
2018-11-06T08:14:11.812Z,97869.97
2018-11-06T08:16:41.806Z,97868.75
2018-11-06T08:19:11.763Z,97869.54
2018-11-06T08:21:41.635Z,97787.38
2018-11-06T08:24:11.543Z,97870.61
2018-11-06T08:26:41.489Z,97875.91
2018-11-06T08:29:11.499Z,97876.67
2018-11-06T08:31:41.800Z,97887.91
2018-11-06T08:34:11.252Z,97883.59
2018-11-06T08:36:41.302Z,97884.36
2018-11-06T08:39:12.147Z,97870.12
2018-11-06T08:41:42.209Z,97859.47
2018-11-06T08:44:12.147Z,97861.82
2018-11-06T08:46:41.987Z,97861.59
2018-11-06T08:49:11.912Z,97871.44
2018-11-06T08:51:41.756Z,97867.02
2018-11-06T08:54:11.751Z,97868.63
2018-11-06T08:56:41.634Z,97864.27
2018-11-06T08:59:11.480Z,97869.25
2018-11-06T09:01:41.472Z,97863.13
2018-11-06T09:04:11.425Z,97870.48
2018-11-06T09:06:41.393Z,97865.54
2018-11-06T09:09:11.579Z,97861.88
2018-11-06T09:11:41.474Z,97864.54
2018-11-06T09:14:11.479Z,97863.59
2018-11-06T09:16:41.459Z,97867.47
2018-11-06T09:19:11.385Z,97870.02
2018-11-06T09:21:41.291Z,97869.11
2018-11-06T09:24:11.229Z,97877.56
2018-11-06T09:26:41.156Z,97873.11
2018-11-06T09:29:11.111Z,97875.43
2018-11-06T09:31:41.143Z,97875.93
2018-11-06T09:34:11.019Z,97878.50
2018-11-06T09:36:40.983Z,97868.13
2018-11-06T09:39:12.011Z,97863.02
2018-11-06T09:41:42.180Z,97859.92
2018-11-06T09:44:12.191Z,97861.28
2018-11-06T09:46:42.151Z,97856.92
2018-11-06T09:49:12.115Z,97854.56
2018-11-06T09:51:42.107Z,97852.06
2018-11-06T09:54:12.067Z,97844.61
2018-11-06T09:56:42.051Z,97840.31
2018-11-06T09:59:12.038Z,97850.11
2018-11-06T10:01:41.891Z,97844.61
2018-11-06T10:04:11.848Z,97842.50
2018-11-06T10:06:42.031Z,97837.03
2018-11-06T10:09:12.335Z,97835.03
2018-11-06T10:11:42.232Z,97834.63
2018-11-06T10:14:12.149Z,97836.37
2018-11-06T10:16:42.003Z,97827.53
2018-11-06T10:19:12.060Z,97829.63
2018-11-06T10:21:42.009Z,97830.95
2018-11-06T10:24:12.023Z,97834.44
2018-11-06T10:26:41.919Z,97824.89
2018-11-06T10:29:11.835Z,97828.84
2018-11-06T10:31:41.757Z,97830.28
2018-11-06T10:34:11.720Z,97815.49
2018-11-06T10:36:41.639Z,97816.54
2018-11-06T10:39:13.268Z,97813.13
2018-11-06T10:41:43.536Z,97814.88
2018-11-06T10:44:13.471Z,97815.30
2018-11-06T10:46:43.419Z,97804.73
2018-11-06T10:49:13.493Z,97804.46
2018-11-06T10:51:43.386Z,97804.00
2018-11-06T10:54:13.399Z,97799.53
2018-11-06T10:56:43.208Z,97801.70
2018-11-06T10:59:13.151Z,97799.06
2018-11-06T11:02:51.101Z,97802.91
2018-11-06T11:05:22.606Z,97794.94
2018-11-06T11:07:52.602Z,97785.70
2018-11-06T11:10:22.441Z,97790.51
2018-11-06T11:12:52.407Z,97469.01
2018-11-06T11:15:22.287Z,97790.70
2018-11-06T11:17:52.211Z,97784.03
2018-11-06T11:20:22.213Z,97783.77
2018-11-06T11:22:52.038Z,97786.25
2018-11-06T11:25:22.130Z,97774.91
2018-11-06T11:27:52.112Z,97773.81
2018-11-06T11:30:22.044Z,97774.28
2018-11-06T11:32:52.004Z,97768.92
2018-11-06T11:35:21.964Z,97762.86
2018-11-06T11:37:51.999Z,97756.56
2018-11-06T11:40:21.905Z,97760.10
2018-11-06T11:42:51.756Z,97761.50
2018-11-06T11:45:21.779Z,97756.77
2018-11-06T11:47:51.685Z,97748.47
2018-11-06T11:50:21.697Z,97747.62
2018-11-06T11:52:51.594Z,97751.66
2018-11-06T11:55:21.493Z,97725.02
2018-11-06T11:57:51.463Z,97738.36
2018-11-06T12:00:22.003Z,97742.28
2018-11-06T12:02:51.943Z,97741.33
2018-11-06T12:05:21.933Z,97738.33
2018-11-06T12:07:51.765Z,97733.90
2018-11-06T12:10:21.745Z,97734.80
2018-11-06T12:12:51.659Z,97735.75
2018-11-06T12:15:21.590Z,97727.70
2018-11-06T12:17:51.511Z,97726.43
2018-11-06T12:20:21.469Z,97732.93
2018-11-06T12:22:51.390Z,97730.28
2018-11-06T12:25:21.541Z,97730.08
2018-11-06T12:27:51.293Z,97725.34
2018-11-06T12:30:21.274Z,97723.22
2018-11-06T12:32:51.182Z,97717.27
2018-11-06T12:35:21.147Z,97722.61
2018-11-06T12:37:51.169Z,97720.39
2018-11-06T12:40:21.085Z,97717.16
2018-11-06T12:42:50.961Z,97717.50
2018-11-06T12:45:20.886Z,97719.67
2018-11-06T12:47:50.782Z,97713.38
2018-11-06T12:50:20.729Z,97718.35
2018-11-06T12:52:50.616Z,97716.69
2018-11-06T12:55:20.565Z,97706.37
2018-11-06T12:57:50.496Z,97708.06
2018-11-06T13:00:21.242Z,97702.52
2018-11-06T13:02:51.116Z,97707.77
2018-11-06T13:05:21.013Z,97702.41
2018-11-06T13:07:50.932Z,97703.27
2018-11-06T13:10:20.919Z,97700.39
2018-11-06T13:12:50.781Z,97701.19
2018-11-06T13:15:20.789Z,97691.91
2018-11-06T13:17:50.681Z,97689.84
2018-11-06T13:20:20.541Z,97691.25
2018-11-06T13:22:50.384Z,97642.83
2018-11-06T13:25:20.370Z,97698.23
2018-11-06T13:27:50.331Z,97700.95
2018-11-06T13:30:20.440Z,97702.62
2018-11-06T13:32:50.347Z,97697.89
2018-11-06T13:35:20.275Z,97695.64
2018-11-06T13:37:50.252Z,97696.30
2018-11-06T13:40:20.319Z,97703.28
2018-11-06T13:42:50.336Z,97698.40
2018-11-06T13:45:22.933Z,97696.98
2018-11-06T13:47:52.754Z,97703.17
2018-11-06T13:50:22.756Z,97707.64
2018-11-06T13:52:52.730Z,97705.16
2018-11-06T13:55:22.696Z,97711.67
2018-11-06T13:57:52.606Z,97707.66
2018-11-06T14:00:22.771Z,97701.84
2018-11-06T14:02:52.608Z,97700.50
2018-11-06T14:05:22.490Z,97703.89
2018-11-06T14:07:52.453Z,97703.32
2018-11-06T14:10:22.265Z,97698.21
2018-11-06T14:12:52.137Z,97707.46
2018-11-06T14:15:22.083Z,97703.16
2018-11-06T14:17:51.913Z,97698.03
2018-11-06T14:20:21.864Z,97699.63
2018-11-06T14:22:51.777Z,97699.55
2018-11-06T14:25:21.707Z,97697.88
2018-11-06T14:27:51.624Z,97701.63
2018-11-06T14:30:21.532Z,97705.84
2018-11-06T14:32:51.472Z,97698.97
2018-11-06T14:35:21.440Z,97699.44
2018-11-06T14:37:51.332Z,97697.45
2018-11-06T14:40:21.272Z,97697.66
2018-11-06T14:42:51.322Z,97683.16
2018-11-06T14:45:21.288Z,97681.77
2018-11-06T14:47:51.350Z,97689.22
2018-11-06T14:50:21.251Z,97689.47
2018-11-06T14:52:51.264Z,97688.80
2018-11-06T14:55:21.170Z,97690.19
2018-11-06T14:57:51.094Z,97683.63
2018-11-06T15:00:21.934Z,97687.27
2018-11-06T15:02:53.160Z,97690.02
2018-11-06T15:05:23.793Z,97691.08
2018-11-06T15:07:53.720Z,97685.59
2018-11-06T15:10:23.628Z,97695.06
2018-11-06T15:12:53.619Z,97679.96
2018-11-06T15:15:23.531Z,97683.63
2018-11-06T15:17:53.498Z,97678.89
2018-11-06T15:20:23.823Z,97679.45
2018-11-06T15:22:53.751Z,97679.52
2018-11-06T15:25:23.714Z,97676.03
2018-11-06T15:27:53.764Z,97674.43
2018-11-06T15:30:23.667Z,97677.30
2018-11-06T15:32:53.615Z,97682.31
2018-11-06T15:35:23.587Z,97686.33
2018-11-06T15:37:53.499Z,97678.99
2018-11-06T15:40:23.504Z,97677.28
2018-11-06T15:42:53.477Z,97678.23
2018-11-06T15:45:23.428Z,97682.16
2018-11-06T15:47:53.301Z,97681.01
2018-11-06T15:50:23.312Z,97685.48
2018-11-06T15:52:53.337Z,97688.12
2018-11-06T15:55:23.296Z,97691.37
2018-11-06T15:57:53.222Z,97690.98
2018-11-06T16:00:24.062Z,97694.93
2018-11-06T16:02:53.963Z,97690.98
2018-11-06T16:05:23.804Z,97696.24
2018-11-06T16:07:53.700Z,97704.08
2018-11-06T16:10:24.340Z,97703.95
2018-11-06T16:12:54.183Z,97706.94
2018-11-06T16:15:24.054Z,97702.59
2018-11-06T16:17:53.869Z,97702.59
2018-11-06T16:20:23.743Z,97697.33
2018-11-06T16:22:53.647Z,97697.36
2018-11-06T16:25:23.686Z,97697.03
2018-11-06T16:27:53.642Z,97686.57
2018-11-06T16:30:23.706Z,97690.13
2018-11-06T16:32:53.639Z,97689.77
2018-11-06T16:35:24.123Z,97685.59
2018-11-06T16:37:54.060Z,97691.91
2018-11-06T16:40:24.047Z,97700.45
2018-11-06T16:42:53.955Z,97699.63
2018-11-06T16:45:23.920Z,97690.42
2018-11-06T16:47:54.183Z,97695.69
2018-11-06T16:50:24.107Z,97694.83
2018-11-06T16:52:54.084Z,97696.50
2018-11-06T16:55:23.979Z,97694.77
2018-11-06T16:57:53.898Z,97693.91
2018-11-06T17:00:25.431Z,97700.02
2018-11-06T17:02:55.151Z,97699.63
2018-11-06T17:05:25.129Z,97697.85
2018-11-06T17:07:55.020Z,97695.29
2018-11-06T17:10:24.916Z,97655.59
2018-11-06T17:12:54.881Z,97698.19
2018-11-06T17:15:24.995Z,97693.78
2018-11-06T17:17:55.445Z,97688.12
2018-11-06T17:20:25.444Z,97683.78
2018-11-06T17:22:55.339Z,97690.29
2018-11-06T17:25:25.270Z,97688.19
2018-11-06T17:27:55.204Z,97340.12
2018-11-06T17:30:25.207Z,97685.68
2018-11-06T17:32:55.128Z,97689.73
2018-11-06T17:35:25.199Z,97681.44
2018-11-06T17:37:55.163Z,97686.14
2018-11-06T17:40:25.031Z,97682.59
2018-11-06T17:42:54.897Z,97677.72
2018-11-06T17:45:25.397Z,97679.96
2018-11-06T17:47:55.229Z,97682.20
2018-11-06T17:50:25.087Z,97684.43
2018-11-06T17:52:54.977Z,97687.92
2018-11-06T17:55:25.082Z,97689.70
2018-11-06T17:57:54.905Z,97691.41
2018-11-06T18:00:25.195Z,97683.05
2018-11-06T18:02:55.103Z,97671.15
2018-11-06T18:05:26.228Z,97683.52
2018-11-06T18:07:56.048Z,97682.13
2018-11-06T18:10:26.028Z,97678.64
2018-11-06T18:12:55.995Z,97684.37
2018-11-06T18:15:25.880Z,97682.66
2018-11-06T18:17:55.906Z,97676.57
2018-11-06T18:20:25.794Z,97687.62
2018-11-06T18:22:55.675Z,97683.22
2018-11-06T18:25:25.804Z,97684.59
2018-11-06T18:27:55.693Z,97683.28
2018-11-06T18:30:25.834Z,97585.43
2018-11-06T18:32:55.799Z,97687.55
2018-11-06T18:35:25.788Z,97684.07
2018-11-06T18:37:55.911Z,97683.67
2018-11-06T18:40:26.133Z,97682.42
2018-11-06T18:42:56.221Z,97685.05
2018-11-06T18:45:26.477Z,97685.91
2018-11-06T18:47:56.702Z,97678.02
2018-11-06T18:50:26.939Z,97687.23
2018-11-06T18:52:57.191Z,97682.82
2018-11-06T18:55:27.540Z,97686.70
2018-11-06T18:57:57.779Z,97684.13
2018-11-06T19:00:28.007Z,97682.36
2018-11-06T19:02:58.092Z,97690.25
2018-11-06T19:05:28.333Z,97686.86
2018-11-06T19:07:58.563Z,97698.30
2018-11-06T19:10:28.978Z,97691.33
2018-11-06T19:12:59.267Z,97690.48
2018-11-06T19:15:29.592Z,97695.73
2018-11-06T19:17:59.847Z,97711.92
2018-11-06T19:20:30.097Z,97688.70
2018-11-06T19:23:00.440Z,97691.70
2018-11-06T19:25:30.936Z,97685.98
2018-11-06T19:28:02.239Z,97685.22
2018-11-06T19:30:32.733Z,97682.42
2018-11-06T19:33:03.116Z,97685.78
2018-11-06T19:35:33.604Z,97685.68
2018-11-06T19:38:03.947Z,97687.92
2018-11-06T19:40:34.444Z,97687.09
2018-11-06T19:43:04.850Z,97684.07
2018-11-06T19:45:35.389Z,97693.73
2018-11-06T19:48:05.875Z,97703.80
2018-11-06T19:50:36.303Z,97701.30
2018-11-06T19:53:07.119Z,97701.30
2018-11-06T19:55:37.618Z,97701.86
2018-11-06T19:58:08.047Z,97703.17
2018-11-06T20:00:40.513Z,97700.08
2018-11-06T20:03:12.063Z,97699.16
2018-11-06T20:05:42.756Z,97702.77
2018-11-06T20:08:20.661Z,97701.45
2018-11-06T20:10:55.393Z,97703.23
2018-11-06T20:13:26.000Z,97701.00
2018-11-06T20:15:56.961Z,97705.10
2018-11-06T20:18:28.723Z,97702.14
2018-11-06T20:21:03.562Z,97699.11
2018-11-06T20:23:35.421Z,97696.02
2018-11-06T20:26:05.941Z,97692.47
2018-11-06T20:28:36.739Z,97698.66
2018-11-06T20:31:08.464Z,97688.66
2018-11-06T20:33:39.460Z,97688.29
2018-11-06T20:36:11.091Z,97696.12
2018-11-06T20:38:42.438Z,97693.48
2018-11-06T20:41:13.265Z,97694.31
2018-11-06T20:43:44.359Z,97696.18
2018-11-06T20:46:14.996Z,97691.31
2018-11-06T20:48:45.942Z,97690.86
2018-11-06T20:51:16.527Z,97695.23
2018-11-06T20:53:47.881Z,97692.54
2018-11-06T20:56:19.463Z,97692.94
2018-11-06T20:58:50.237Z,97691.09
2018-11-06T21:01:23.883Z,97696.36
2018-11-06T21:03:55.995Z,97701.59
2018-11-06T21:06:27.307Z,97695.02
2018-11-06T21:08:57.674Z,97622.87
2018-11-06T21:11:28.021Z,97689.78
2018-11-06T21:13:58.320Z,97680.94
2018-11-06T21:16:28.695Z,97683.60
2018-11-06T21:18:59.061Z,97680.24
2018-11-06T21:21:29.310Z,97683.25
2018-11-06T21:24:00.060Z,97675.73
2018-11-06T21:26:30.348Z,97672.67
2018-11-06T21:29:01.591Z,97674.00
2018-11-06T21:31:31.767Z,97677.51
2018-11-06T21:34:02.168Z,97671.36
2018-11-06T21:36:33.300Z,97677.48
2018-11-06T21:39:04.109Z,97680.91
2018-11-06T21:41:35.054Z,97678.58
2018-11-06T21:44:07.909Z,97681.54
2018-11-06T21:46:38.758Z,97678.91
2018-11-06T21:49:09.438Z,97681.84
2018-11-06T21:51:40.627Z,97679.21
2018-11-06T21:54:10.763Z,97678.75
2018-11-06T21:56:40.577Z,97586.39
2018-11-06T21:59:11.132Z,97684.87
2018-11-06T22:01:42.315Z,97676.98
2018-11-06T22:04:12.800Z,97683.09
2018-11-06T22:06:43.223Z,97683.95
2018-11-06T22:09:14.868Z,97678.23
2018-11-06T22:11:46.479Z,97687.34
2018-11-06T22:14:17.160Z,97681.65
2018-11-06T22:16:48.540Z,97679.88
2018-11-06T22:19:19.208Z,97678.17
2018-11-06T22:21:49.528Z,97676.39
2018-11-06T22:24:21.440Z,97676.85
2018-11-06T22:26:51.242Z,97677.22
2018-11-06T22:29:21.129Z,97684.64
2018-11-06T22:31:51.171Z,97686.88
2018-11-06T22:34:20.901Z,97677.70
2018-11-06T22:36:50.858Z,97672.41
2018-11-06T22:39:20.783Z,97667.16
2018-11-06T22:41:50.655Z,97673.67
2018-11-06T22:44:20.515Z,97674.52
2018-11-06T22:46:50.271Z,97681.56
2018-11-06T22:49:20.130Z,97678.13
2018-11-06T22:51:50.063Z,97668.50
2018-11-06T22:54:19.914Z,97655.81
2018-11-06T22:56:49.715Z,97658.84
2018-11-06T22:59:19.528Z,97661.07
2018-11-06T23:01:49.448Z,97668.11
2018-11-06T23:04:19.417Z,97674.22
2018-11-06T23:06:49.526Z,97669.42
2018-11-06T23:09:19.276Z,97670.34
2018-11-06T23:11:49.202Z,97669.02
2018-11-06T23:14:19.155Z,97662.84
2018-11-06T23:16:48.962Z,97654.56
2018-11-06T23:19:18.784Z,97657.59
2018-11-06T23:21:48.711Z,97657.12
2018-11-06T23:24:18.563Z,97653.64
2018-11-06T23:26:48.382Z,97657.19
2018-11-06T23:29:18.244Z,97662.05
2018-11-06T23:31:48.181Z,97655.48
2018-11-06T23:34:18.065Z,97660.34
2018-11-06T23:36:47.934Z,97663.00
2018-11-06T23:39:17.770Z,97662.58
2018-11-06T23:41:47.567Z,97666.86
2018-11-06T23:44:17.517Z,97661.13
2018-11-06T23:46:47.345Z,97668.17
2018-11-06T23:49:17.217Z,97666.45
2018-11-06T23:51:47.141Z,97657.74
2018-11-06T23:54:17.010Z,97651.59
2018-11-06T23:56:46.877Z,97656.86
2018-11-06T23:59:16.791Z,97659.48
